Terminal Aerodrome Forecast
Issued by NWS Wilmington, NC

Home | Current Version | Previous Version | Text Only | Print | Product List | Glossary On
Versions: 1 2 3 4 5 6 7 8 9 10 11 12 13 14 15
027
FTUS42 KILM 182320
TAFFLO
TAF
KFLO 182320Z 1900/1924 20006KT P6SM SKC
     FM191800 25006KT P6SM BKN050
     FM192200 23005KT P6SM SCT050=

USA.gov is the U.S. government's official web portal to all federal, state and local government web resources and services.